createdAt,value
2022-10-17T00:06:57.861Z,97946.08
2022-10-17T00:17:01.939Z,97944.77
2022-10-17T00:27:06.013Z,97950.16
2022-10-17T00:37:10.083Z,97953.73
2022-10-17T00:47:22.241Z,97966.05
2022-10-17T00:57:28.306Z,97964.41
2022-10-17T01:07:34.908Z,97960.61
2022-10-17T01:18:01.884Z,97954.59
2022-10-17T01:28:50.694Z,97952.90
2022-10-17T01:39:02.542Z,97954.71
2022-10-17T01:49:10.576Z,97954.56
2022-10-17T01:59:29.317Z,97956.69
2022-10-17T02:09:33.177Z,97959.23
2022-10-17T02:20:17.668Z,97960.13
2022-10-17T02:30:40.290Z,97955.45
2022-10-17T02:40:46.134Z,97963.79
2022-10-17T02:51:13.021Z,97972.32
2022-10-17T03:01:17.734Z,97974.00
2022-10-17T03:11:21.659Z,97972.95
2022-10-17T03:21:27.485Z,97983.30
2022-10-17T03:31:32.363Z,97992.69
2022-10-17T03:41:36.833Z,98001.89
2022-10-17T03:51:40.630Z,98013.90
2022-10-17T04:01:48.162Z,98012.63
2022-10-17T04:11:52.246Z,98022.72
2022-10-17T04:21:56.731Z,98031.91
2022-10-17T04:32:00.756Z,98039.52
2022-10-17T04:42:12.149Z,98045.35
2022-10-17T04:52:17.361Z,98036.13
2022-10-17T05:02:23.071Z,98044.45
2022-10-17T05:12:27.859Z,98058.55
2022-10-17T05:22:32.104Z,98065.44
2022-10-17T05:32:37.320Z,98071.59
2022-10-17T05:42:46.892Z,98076.91
2022-10-17T05:52:54.469Z,98083.80
2022-10-17T06:02:59.167Z,98097.33
2022-10-17T06:13:02.839Z,98098.40
2022-10-17T06:23:06.809Z,98107.98
2022-10-17T06:33:45.871Z,98119.20
2022-10-17T06:43:50.367Z,98127.89
2022-10-17T06:54:26.158Z,98129.76
2022-10-17T07:05:05.397Z,98134.87
2022-10-17T07:15:13.437Z,98137.16
2022-10-17T07:25:17.210Z,98136.57
2022-10-17T07:35:26.866Z,98140.84
2022-10-17T07:45:30.998Z,98144.44
2022-10-17T07:55:35.123Z,98147.30
2022-10-17T08:05:38.895Z,98144.14
2022-10-17T08:15:43.063Z,98138.79
2022-10-17T08:25:47.029Z,98141.05
2022-10-17T08:35:51.120Z,98134.88
2022-10-17T08:46:03.709Z,98137.73
2022-10-17T08:56:47.584Z,98137.68
2022-10-17T09:07:15.830Z,98138.27
2022-10-17T09:17:32.381Z,98132.40
2022-10-17T09:27:42.434Z,98129.94
2022-10-17T09:37:47.718Z,98133.49
2022-10-17T09:48:10.581Z,98138.86
2022-10-17T09:58:15.569Z,98134.20
2022-10-17T10:08:20.679Z,98131.45
2022-10-17T10:18:27.429Z,98132.69
2022-10-17T10:28:36.407Z,98129.91
2022-10-17T10:38:42.781Z,98128.79
2022-10-17T10:48:58.773Z,98119.31
2022-10-17T10:59:05.512Z,98118.55
2022-10-17T11:09:34.644Z,98115.61
2022-10-17T11:19:52.348Z,98114.06
2022-10-17T11:29:58.564Z,98102.63
2022-10-17T11:40:24.398Z,98103.23
2022-10-17T12:01:25.388Z,98093.55
2022-10-17T12:11:41.533Z,98089.96
2022-10-17T12:22:21.724Z,98089.11
2022-10-17T12:32:30.187Z,98082.17
2022-10-17T12:42:48.718Z,98067.88
2022-10-17T12:53:01.952Z,98059.99
2022-10-17T13:03:22.446Z,98055.98
2022-10-17T13:13:52.708Z,98053.94
2022-10-17T13:23:56.896Z,98059.86
2022-10-17T13:34:03.411Z,98061.15
2022-10-17T13:44:16.332Z,98057.16
2022-10-17T13:54:40.898Z,98063.45
2022-10-17T14:05:15.215Z,98056.26
2022-10-17T14:15:15.020Z,98057.35
2022-10-17T14:25:32.567Z,98057.20
2022-10-17T14:35:42.488Z,98062.02
2022-10-17T14:45:47.513Z,98060.57
2022-10-17T14:56:00.866Z,98059.67
2022-10-17T15:06:35.341Z,98063.08
2022-10-17T15:16:40.006Z,98066.40
2022-10-17T15:26:44.357Z,98066.11
2022-10-17T15:36:53.229Z,98070.51
2022-10-17T15:46:58.177Z,98079.18
2022-10-17T15:57:02.247Z,98080.52
2022-10-17T16:07:06.859Z,98083.98
2022-10-17T16:17:17.039Z,98086.80
2022-10-17T16:27:20.721Z,98090.30
2022-10-17T16:37:24.374Z,98101.34
2022-10-17T16:47:27.945Z,98111.11
2022-10-17T16:57:31.751Z,98115.04
2022-10-17T17:07:36.585Z,98119.98
2022-10-17T17:17:56.738Z,98116.61
2022-10-17T17:28:04.534Z,98114.90
2022-10-17T17:38:09.184Z,98108.05
2022-10-17T17:48:13.980Z,98103.38
2022-10-17T17:58:22.354Z,98106.94
2022-10-17T18:08:26.232Z,98109.24
2022-10-17T18:18:31.853Z,98112.40
2022-10-17T18:28:39.641Z,98105.65
2022-10-17T18:38:44.093Z,98109.14
2022-10-17T18:48:51.399Z,98106.26
2022-10-17T18:58:56.332Z,98109.20
2022-10-17T19:09:04.089Z,98107.17
2022-10-17T19:19:28.882Z,98104.85
2022-10-17T19:29:33.511Z,98109.70
2022-10-17T19:39:37.486Z,98115.63
2022-10-17T19:49:41.461Z,98114.40
2022-10-17T19:59:46.671Z,98123.83
2022-10-17T20:09:52.023Z,98123.08
2022-10-17T20:19:56.859Z,98125.45
2022-10-17T20:30:02.467Z,98122.15
2022-10-17T20:40:34.616Z,98121.78
2022-10-17T20:50:37.871Z,98114.41
2022-10-17T21:00:42.633Z,98109.37
2022-10-17T21:10:46.124Z,98103.97
2022-10-17T21:20:49.971Z,98101.07
2022-10-17T21:30:53.841Z,98095.25
2022-10-17T21:40:57.913Z,98089.86
2022-10-17T21:51:04.443Z,98082.88
2022-10-17T22:01:14.690Z,98073.73
2022-10-17T22:11:24.786Z,98065.05
2022-10-17T22:21:28.657Z,98062.32
2022-10-17T22:31:32.406Z,98056.17
2022-10-17T22:41:36.079Z,98047.99
2022-10-17T22:51:39.538Z,98047.98
2022-10-17T23:01:43.129Z,98042.48
2022-10-17T23:11:46.873Z,98040.33
2022-10-17T23:21:50.329Z,98037.27
2022-10-17T23:31:56.789Z,98031.12
2022-10-17T23:42:00.534Z,98020.31
2022-10-17T23:52:04.325Z,98013.04
